ITY615 KBOS-LIRF
Flight info
| Callsign | ITY615 |
|---|---|
| Flight time | N/A |
| Altitude | 37000 |
| Route | CELTK7 CELTK DCT FRILL DCT WHALE N59E NANSO/M081F370 N59E RAFIN/M081F390 NATV ELSOX DCT TAKAS/N0474F390 DCT ALUTA DCT KORER DCT LEMKA DCT BEBIX/N0473F400 DCT VALKU/N0473F410 DCT TIS DCT MEBAK DCT GIPNO DCT BALSI DCT OBIGO DCT ROBEX DCT LAPRI/N0469F400 DCT MOGBO/N0469F410 DCT ELB/N0465F400 DCT ELKAP |
| Aircraft | A339/H-SABDE2E3GHIJ1J4J5M1P2RWXYZ/LB1D1G1 |
Departure
| Time | 2026-05-05 00:13 |
|---|---|
| Airport | Boston Logan International Airport (KBOS) |
Arrival
| Time | N/A |
|---|---|
| Airport | Rome–Fiumicino Leonardo da Vinci International Airport (LIRF) |
| Time | Latitude | Longitude | Altitude | Speed | Heading |
|---|---|---|---|---|---|
| 2026-05-04 23:40 | 42.37135 | -71.02009 | 31 ft | 0 kts | 211° |
| 2026-05-05 00:01 | 42.37137 | -71.02008 | 31 ft | 2 kts | 211° |
| 2026-05-05 00:01 | 42.37159 | -71.01989 | 30 ft | 4 kts | 211° |
| 2026-05-05 00:01 | 42.37180 | -71.01971 | 31 ft | 3 kts | 211° |
| 2026-05-05 00:01 | 42.37202 | -71.01962 | 31 ft | 4 kts | 158° |
| 2026-05-05 00:02 | 42.37220 | -71.01984 | 31 ft | 4 kts | 117° |
| 2026-05-05 00:02 | 42.37230 | -71.02017 | 31 ft | 4 kts | 105° |
| 2026-05-05 00:02 | 42.37236 | -71.02053 | 31 ft | 4 kts | 98° |
| 2026-05-05 00:02 | 42.37240 | -71.02088 | 31 ft | 4 kts | 92° |
| 2026-05-05 00:03 | 42.37238 | -71.02124 | 30 ft | 4 kts | 70° |
| 2026-05-05 00:03 | 42.37226 | -71.02149 | 31 ft | 3 kts | 43° |
| 2026-05-05 00:03 | 42.37210 | -71.02169 | 31 ft | 0 kts | 43° |
| 2026-05-05 00:03 | 42.37210 | -71.02170 | 31 ft | 0 kts | 43° |
| 2026-05-05 00:06 | 42.37210 | -71.02169 | 30 ft | 0 kts | 43° |
| 2026-05-05 00:06 | 42.37227 | -71.02149 | 31 ft | 7 kts | 43° |
| 2026-05-05 00:06 | 42.37243 | -71.02114 | 31 ft | 4 kts | 72° |
| 2026-05-05 00:07 | 42.37236 | -71.02043 | 31 ft | 11 kts | 97° |
| 2026-05-05 00:07 | 42.37247 | -71.01936 | 31 ft | 12 kts | 59° |
| 2026-05-05 00:07 | 42.37297 | -71.01848 | 31 ft | 12 kts | 78° |
| 2026-05-05 00:07 | 42.37253 | -71.01765 | 30 ft | 11 kts | 135° |
| 2026-05-05 00:08 | 42.37196 | -71.01690 | 31 ft | 12 kts | 135° |
| 2026-05-05 00:08 | 42.37138 | -71.01612 | 31 ft | 12 kts | 136° |
| 2026-05-05 00:08 | 42.37078 | -71.01533 | 31 ft | 12 kts | 135° |
| 2026-05-05 00:08 | 42.37016 | -71.01450 | 31 ft | 13 kts | 135° |
| 2026-05-05 00:09 | 42.36953 | -71.01365 | 31 ft | 13 kts | 135° |
| 2026-05-05 00:09 | 42.36900 | -71.01268 | 31 ft | 13 kts | 113° |
| 2026-05-05 00:09 | 42.36933 | -71.01169 | 31 ft | 12 kts | 42° |
| 2026-05-05 00:09 | 42.37006 | -71.01099 | 31 ft | 13 kts | 28° |
| 2026-05-05 00:10 | 42.37093 | -71.01042 | 31 ft | 14 kts | 25° |
| 2026-05-05 00:10 | 42.37186 | -71.00982 | 31 ft | 15 kts | 26° |
| 2026-05-05 00:10 | 42.37295 | -71.00914 | 31 ft | 20 kts | 23° |
| 2026-05-05 00:10 | 42.37431 | -71.00845 | 31 ft | 21 kts | 18° |
| 2026-05-05 00:11 | 42.37573 | -71.00781 | 31 ft | 22 kts | 20° |
| 2026-05-05 00:11 | 42.37707 | -71.00713 | 31 ft | 20 kts | 21° |
| 2026-05-05 00:11 | 42.37813 | -71.00659 | 31 ft | 10 kts | 20° |
| 2026-05-05 00:11 | 42.37839 | -71.00602 | 31 ft | 4 kts | 77° |
| 2026-05-05 00:12 | 42.37834 | -71.00580 | 31 ft | 2 kts | 104° |
| 2026-05-05 00:12 | 42.37828 | -71.00550 | 31 ft | 5 kts | 105° |
| 2026-05-05 00:12 | 42.37802 | -71.00490 | 31 ft | 6 kts | 146° |
| 2026-05-05 00:12 | 42.37740 | -71.00498 | 30 ft | 22 kts | 195° |
| 2026-05-05 00:13 | 42.37318 | -71.00700 | 33 ft | 104 kts | 200° |
| 2026-05-05 00:13 | 42.36411 | -71.01141 | 64 ft | 167 kts | 199° |
| 2026-05-05 00:13 | 42.35310 | -71.01665 | 812 ft | 169 kts | 197° |
| 2026-05-05 00:13 | 42.34142 | -71.01560 | 1577 ft | 176 kts | 161° |
| 2026-05-05 00:14 | 42.33121 | -71.00515 | 2086 ft | 197 kts | 134° |
| 2026-05-05 00:14 | 42.32253 | -70.98979 | 2549 ft | 216 kts | 132° |
| 2026-05-05 00:14 | 42.31397 | -70.97204 | 3050 ft | 236 kts | 121° |
| 2026-05-05 00:14 | 42.31103 | -70.94941 | 3704 ft | 254 kts | 87° |
| 2026-05-05 00:15 | 42.31418 | -70.92613 | 4353 ft | 261 kts | 79° |
| 2026-05-05 00:15 | 42.31853 | -70.90154 | 4656 ft | 279 kts | 77° |
| 2026-05-05 00:15 | 42.32302 | -70.87518 | 4976 ft | 294 kts | 78° |
| 2026-05-05 00:15 | 42.32727 | -70.84785 | 5519 ft | 299 kts | 79° |
| 2026-05-05 00:16 | 42.33118 | -70.82028 | 6199 ft | 298 kts | 79° |
| 2026-05-05 00:16 | 42.33247 | -70.79219 | 6814 ft | 301 kts | 92° |
| 2026-05-05 00:16 | 42.32951 | -70.76412 | 7400 ft | 303 kts | 102° |
| 2026-05-05 00:16 | 42.32551 | -70.73609 | 8031 ft | 305 kts | 101° |
| 2026-05-05 00:17 | 42.32166 | -70.70779 | 8635 ft | 308 kts | 101° |
| 2026-05-05 00:17 | 42.31795 | -70.67915 | 9199 ft | 311 kts | 100° |
| 2026-05-05 00:17 | 42.31427 | -70.65021 | 9830 ft | 313 kts | 100° |
| 2026-05-05 00:17 | 42.31104 | -70.62092 | 10310 ft | 321 kts | 96° |
| 2026-05-05 00:18 | 42.30849 | -70.59010 | 10492 ft | 339 kts | 96° |
| 2026-05-05 00:18 | 42.30588 | -70.55766 | 10679 ft | 356 kts | 96° |
| 2026-05-05 00:18 | 42.30304 | -70.52391 | 11034 ft | 365 kts | 96° |
| 2026-05-05 00:18 | 42.30010 | -70.48978 | 11617 ft | 367 kts | 97° |
| 2026-05-05 00:19 | 42.29710 | -70.45543 | 12185 ft | 369 kts | 97° |
| 2026-05-05 00:19 | 42.29415 | -70.42074 | 12707 ft | 374 kts | 96° |
| 2026-05-05 00:19 | 42.29123 | -70.38610 | 13182 ft | 378 kts | 97° |
| 2026-05-05 00:19 | 42.28819 | -70.35073 | 13707 ft | 381 kts | 97° |
| 2026-05-05 00:20 | 42.28509 | -70.31506 | 14185 ft | 384 kts | 96° |
| 2026-05-05 00:20 | 42.28195 | -70.27898 | 14660 ft | 388 kts | 96° |
| 2026-05-05 00:20 | 42.27875 | -70.24265 | 15167 ft | 391 kts | 96° |
| 2026-05-05 00:20 | 42.27551 | -70.20601 | 15614 ft | 395 kts | 96° |
| 2026-05-05 00:21 | 42.27224 | -70.16903 | 16143 ft | 396 kts | 96° |